createdAt,value
2022-10-30T00:00:49.552Z,8.18
2022-10-30T00:03:17.311Z,8.48
2022-10-30T00:05:49.383Z,8.70
2022-10-30T00:08:18.463Z,9.48
2022-10-30T00:10:46.126Z,8.68
2022-10-30T00:13:14.147Z,9.30
2022-10-30T00:15:51.169Z,8.73
2022-10-30T00:18:18.721Z,9.38
2022-10-30T00:20:45.608Z,8.85
2022-10-30T00:23:12.728Z,8.73
2022-10-30T00:25:39.820Z,7.95
2022-10-30T00:28:07.957Z,8.30
2022-10-30T00:30:35.649Z,8.32
2022-10-30T00:33:03.268Z,8.30
2022-10-30T00:35:30.577Z,7.75
2022-10-30T00:38:01.093Z,8.60
2022-10-30T00:40:28.393Z,8.43
2022-10-30T00:42:55.281Z,7.90
2022-10-30T00:45:22.214Z,8.25
2022-10-30T00:47:56.699Z,8.88
2022-10-30T00:53:11.688Z,8.15
2022-10-30T00:55:56.038Z,8.25
2022-10-30T00:58:33.297Z,9.85
2022-10-30T01:01:04.312Z,8.10
2022-10-30T01:03:32.453Z,9.52
2022-10-30T01:06:02.962Z,8.25
2022-10-30T01:08:30.231Z,8.80
2022-10-30T01:10:59.866Z,8.13
2022-10-30T01:13:27.632Z,8.82
2022-10-30T01:16:10.728Z,8.35
2022-10-30T01:18:52.775Z,9.15
2022-10-30T01:21:27.591Z,8.60
2022-10-30T01:24:06.697Z,8.75
2022-10-30T01:26:46.992Z,8.45
2022-10-30T01:29:40.909Z,9.60
2022-10-30T01:32:32.908Z,8.13
2022-10-30T01:35:10.036Z,7.70
2022-10-30T01:37:48.138Z,7.97
2022-10-30T01:40:18.069Z,9.27
2022-10-30T01:42:49.434Z,9.38
2022-10-30T01:45:30.873Z,9.02
2022-10-30T01:48:41.595Z,9.52
2022-10-30T01:51:46.393Z,8.57
2022-10-30T01:54:27.753Z,8.23
2022-10-30T01:57:21.895Z,9.07
2022-10-30T02:00:11.002Z,9.35
2022-10-30T02:02:37.992Z,8.68
2022-10-30T02:05:07.893Z,9.15
2022-10-30T02:07:36.357Z,9.35
2022-10-30T02:10:04.257Z,8.70
2022-10-30T02:12:31.678Z,9.23
2022-10-30T02:15:00.861Z,9.48
2022-10-30T02:17:28.467Z,8.10
2022-10-30T02:19:55.659Z,8.45
2022-10-30T02:22:22.894Z,9.48
2022-10-30T02:24:49.719Z,9.57
2022-10-30T02:27:16.814Z,9.25
2022-10-30T02:29:43.665Z,10.15
2022-10-30T02:32:11.538Z,9.80
2022-10-30T02:34:38.367Z,8.82
2022-10-30T02:37:05.206Z,8.48
2022-10-30T02:39:31.986Z,9.07
2022-10-30T02:42:00.314Z,9.27
2022-10-30T02:44:27.071Z,9.20
2022-10-30T02:46:53.926Z,9.20
2022-10-30T02:49:20.707Z,8.38
2022-10-30T02:51:47.553Z,8.95
2022-10-30T02:54:14.413Z,8.45
2022-10-30T02:56:41.516Z,8.43
2022-10-30T02:59:08.412Z,9.13
2022-10-30T03:01:35.305Z,9.20
2022-10-30T03:04:02.190Z,8.07
2022-10-30T03:06:29.206Z,9.23
2022-10-30T03:08:56.001Z,8.95
2022-10-30T03:11:22.885Z,8.48
2022-10-30T03:13:50.336Z,8.38
2022-10-30T03:16:25.693Z,8.90
2022-10-30T03:18:53.848Z,9.77
2022-10-30T03:21:23.242Z,8.77
2022-10-30T03:23:50.667Z,10.02
2022-10-30T03:26:17.710Z,8.50
2022-10-30T03:28:44.621Z,9.80
2022-10-30T03:31:13.952Z,9.85
2022-10-30T03:36:09.894Z,8.60
2022-10-30T03:38:36.879Z,9.15
2022-10-30T03:41:04.743Z,8.80
2022-10-30T03:43:31.799Z,8.82
2022-10-30T03:45:58.631Z,9.35
2022-10-30T03:48:27.622Z,10.02
2022-10-30T03:50:56.092Z,9.18
2022-10-30T03:53:26.844Z,9.95
2022-10-30T03:55:57.941Z,9.10
2022-10-30T03:58:24.878Z,9.77
2022-10-30T04:00:51.822Z,10.10
2022-10-30T04:03:18.682Z,8.43
2022-10-30T04:05:45.809Z,9.25
2022-10-30T04:08:14.283Z,8.93
2022-10-30T04:10:45.445Z,9.97
2022-10-30T04:13:14.261Z,10.23
2022-10-30T04:15:41.642Z,10.98
2022-10-30T04:18:11.556Z,8.60
2022-10-30T04:20:38.374Z,9.77
2022-10-30T04:23:07.105Z,9.80
2022-10-30T04:25:35.229Z,9.43
2022-10-30T04:28:02.372Z,9.93
2022-10-30T04:30:32.403Z,9.35
2022-10-30T04:32:59.759Z,9.95
2022-10-30T04:35:30.143Z,10.45
2022-10-30T04:37:59.104Z,9.57
2022-10-30T04:40:28.348Z,8.32
2022-10-30T04:45:22.860Z,8.43
2022-10-30T04:47:49.710Z,9.20
2022-10-30T04:50:17.042Z,8.05
2022-10-30T04:52:44.063Z,10.70
2022-10-30T04:55:11.648Z,8.98
2022-10-30T04:57:38.670Z,8.27
2022-10-30T05:00:07.795Z,8.15
2022-10-30T05:02:36.897Z,9.68
2022-10-30T05:07:31.177Z,8.52
2022-10-30T05:09:58.025Z,8.85
2022-10-30T05:12:24.845Z,8.50
2022-10-30T05:14:51.712Z,8.30
2022-10-30T05:17:18.653Z,10.15
2022-10-30T05:19:45.646Z,9.82
2022-10-30T05:22:12.902Z,8.93
2022-10-30T05:24:39.772Z,8.73
2022-10-30T05:27:06.624Z,9.15
2022-10-30T05:29:33.437Z,9.63
2022-10-30T05:32:00.283Z,9.35
2022-10-30T05:34:27.223Z,8.65
2022-10-30T05:36:54.153Z,9.45
2022-10-30T05:39:21.001Z,9.30
2022-10-30T05:41:47.975Z,8.45
2022-10-30T05:44:18.021Z,8.48
2022-10-30T05:46:51.233Z,8.63
2022-10-30T05:49:18.116Z,8.23
2022-10-30T05:51:45.046Z,8.77
2022-10-30T05:54:11.861Z,10.60
2022-10-30T05:56:38.700Z,9.20
2022-10-30T05:59:05.537Z,8.48
2022-10-30T06:01:32.500Z,9.27
2022-10-30T06:03:59.422Z,8.77
2022-10-30T06:06:26.282Z,8.60
2022-10-30T06:08:53.151Z,8.48
2022-10-30T06:11:19.978Z,8.63
2022-10-30T06:13:48.239Z,8.85
2022-10-30T06:16:15.095Z,9.63
2022-10-30T06:18:41.903Z,9.43
2022-10-30T06:21:08.741Z,10.27
2022-10-30T06:23:35.537Z,10.57
2022-10-30T06:26:02.335Z,11.05
2022-10-30T06:28:29.126Z,11.98
2022-10-30T06:30:56.013Z,9.57
2022-10-30T06:33:23.028Z,9.18
2022-10-30T06:35:50.144Z,10.57
2022-10-30T06:38:17.428Z,12.38
2022-10-30T06:40:44.251Z,11.27
2022-10-30T06:43:11.092Z,12.48
2022-10-30T06:45:37.899Z,11.25
2022-10-30T06:48:04.911Z,12.32
2022-10-30T06:50:32.301Z,12.57
2022-10-30T06:52:59.248Z,12.55
2022-10-30T06:55:26.063Z,12.15
2022-10-30T06:57:57.341Z,13.25
2022-10-30T07:00:24.582Z,13.45
2022-10-30T07:03:02.527Z,11.93
2022-10-30T07:05:29.837Z,13.95
2022-10-30T07:07:57.555Z,12.63
2022-10-30T07:10:24.467Z,12.73
2022-10-30T07:12:52.882Z,13.75
2022-10-30T07:15:19.768Z,12.80
2022-10-30T07:18:01.298Z,12.85
2022-10-30T07:20:30.582Z,13.75
2022-10-30T07:22:57.558Z,13.57
2022-10-30T07:25:24.665Z,13.27
2022-10-30T07:27:53.246Z,12.23
2022-10-30T07:30:22.990Z,13.88
2022-10-30T07:33:01.345Z,13.57
2022-10-30T07:35:29.378Z,13.25
2022-10-30T07:37:56.648Z,12.75
2022-10-30T07:40:23.512Z,9.73
2022-10-30T07:42:56.940Z,9.95
2022-10-30T07:45:24.265Z,11.15
2022-10-30T07:47:51.095Z,11.57
2022-10-30T07:50:18.122Z,13.90
2022-10-30T07:52:45.388Z,9.95
2022-10-30T07:55:12.540Z,14.70
2022-10-30T07:57:40.904Z,15.13
2022-10-30T08:00:11.001Z,14.45
2022-10-30T08:02:38.242Z,12.60
2022-10-30T08:05:06.050Z,14.10
2022-10-30T08:07:34.552Z,12.43
2022-10-30T08:10:01.683Z,13.77
2022-10-30T08:12:28.876Z,12.27
2022-10-30T08:14:55.689Z,13.65
2022-10-30T08:17:22.696Z,13.15
2022-10-30T08:19:49.522Z,13.77
2022-10-30T08:22:16.497Z,14.70
2022-10-30T08:24:44.208Z,14.52
2022-10-30T08:27:11.093Z,11.30
2022-10-30T08:29:37.911Z,9.98
2022-10-30T08:32:05.125Z,12.05
2022-10-30T08:34:32.570Z,14.88
2022-10-30T08:37:00.136Z,14.68
2022-10-30T08:39:27.185Z,15.80
2022-10-30T08:41:54.120Z,15.40
2022-10-30T08:44:21.565Z,14.25
2022-10-30T08:46:48.385Z,14.65
2022-10-30T08:49:15.248Z,14.95
2022-10-30T08:51:42.838Z,14.05
2022-10-30T08:54:10.590Z,14.48
2022-10-30T08:56:37.550Z,14.75
2022-10-30T08:59:04.416Z,13.80
2022-10-30T09:01:31.331Z,15.50
2022-10-30T09:03:58.321Z,13.05
2022-10-30T09:06:25.114Z,14.98
2022-10-30T09:08:51.969Z,14.82
2022-10-30T09:11:18.821Z,14.63
2022-10-30T09:13:45.641Z,13.55
2022-10-30T09:16:12.483Z,14.80
2022-10-30T09:18:39.447Z,15.00
2022-10-30T09:21:06.558Z,14.05
2022-10-30T09:23:33.540Z,13.63
2022-10-30T09:26:00.487Z,13.65
2022-10-30T09:28:27.433Z,13.57
2022-10-30T09:30:58.540Z,13.57
2022-10-30T09:33:25.440Z,12.48
2022-10-30T09:35:52.331Z,14.63
2022-10-30T09:38:19.184Z,14.35
2022-10-30T09:40:49.108Z,14.40
2022-10-30T09:43:44.289Z,14.40
2022-10-30T09:46:33.480Z,14.93
2022-10-30T09:49:29.291Z,14.63
2022-10-30T09:52:14.821Z,13.75
2022-10-30T09:54:50.223Z,14.10
2022-10-30T09:57:24.562Z,13.93
2022-10-30T10:00:06.618Z,13.15
2022-10-30T10:02:40.436Z,12.63
2022-10-30T10:05:37.804Z,13.80
2022-10-30T10:08:10.187Z,11.90
2022-10-30T10:10:45.703Z,12.65
2022-10-30T10:13:33.113Z,9.15
2022-10-30T10:16:23.939Z,11.75
2022-10-30T10:21:31.013Z,13.13
2022-10-30T10:24:03.624Z,11.95
2022-10-30T10:26:42.972Z,12.35
2022-10-30T10:29:22.186Z,10.00
2022-10-30T10:32:17.752Z,11.93
2022-10-30T10:35:08.864Z,12.68
2022-10-30T10:37:57.326Z,8.75
2022-10-30T10:40:36.865Z,8.73
2022-10-30T10:43:34.755Z,8.35
2022-10-30T10:46:23.071Z,12.02
2022-10-30T10:49:33.439Z,11.55
2022-10-30T10:52:08.832Z,11.07
2022-10-30T10:54:46.345Z,11.82
2022-10-30T10:57:29.061Z,10.07
2022-10-30T11:00:02.332Z,10.80
2022-10-30T11:02:57.877Z,11.05
2022-10-30T11:05:54.286Z,10.32
2022-10-30T11:08:30.501Z,11.02
2022-10-30T11:11:01.894Z,11.60
2022-10-30T11:13:40.914Z,8.48
2022-10-30T11:16:24.260Z,11.30
2022-10-30T11:18:58.171Z,11.95
2022-10-30T11:21:27.459Z,11.18
2022-10-30T11:23:54.374Z,10.38
2022-10-30T11:30:56.087Z,10.68
2022-10-30T11:33:23.463Z,10.23
2022-10-30T11:39:07.253Z,10.55
2022-10-30T11:41:34.200Z,10.43
2022-10-30T11:44:01.122Z,9.75
2022-10-30T11:46:28.467Z,10.40
2022-10-30T11:48:55.470Z,9.27
2022-10-30T11:51:39.451Z,10.32
2022-10-30T11:54:07.660Z,9.38
2022-10-30T11:56:35.656Z,9.32
2022-10-30T11:59:04.105Z,9.47
2022-10-30T12:01:35.947Z,9.13
2022-10-30T12:04:16.010Z,8.10
2022-10-30T12:06:42.926Z,7.78
2022-10-30T12:09:23.190Z,9.65
2022-10-30T12:11:50.363Z,8.80
2022-10-30T12:14:20.707Z,8.98
2022-10-30T12:16:52.369Z,8.90
2022-10-30T12:19:22.766Z,9.70
2022-10-30T12:21:57.723Z,9.63
2022-10-30T12:24:27.554Z,9.52
2022-10-30T12:26:56.057Z,8.15
2022-10-30T12:30:02.607Z,9.23
2022-10-30T12:32:25.915Z,8.13
2022-10-30T12:35:08.686Z,8.88
2022-10-30T12:37:41.595Z,9.57
2022-10-30T12:40:15.854Z,9.85
2022-10-30T12:42:57.484Z,10.45
2022-10-30T12:45:34.624Z,9.88
2022-10-30T12:48:09.101Z,9.77
2022-10-30T12:50:51.175Z,9.75
2022-10-30T12:53:59.599Z,9.13
2022-10-30T12:56:39.101Z,9.95
2022-10-30T12:59:26.083Z,8.10
2022-10-30T13:02:21.161Z,8.50
2022-10-30T13:04:52.604Z,8.15
2022-10-30T13:07:38.710Z,8.82
2022-10-30T13:10:33.473Z,8.95
2022-10-30T13:13:25.314Z,8.63
2022-10-30T13:15:57.722Z,8.23
2022-10-30T13:18:31.432Z,8.68
2022-10-30T13:21:24.174Z,8.57
2022-10-30T13:24:00.373Z,9.32
2022-10-30T13:26:50.194Z,9.52
2022-10-30T13:29:37.626Z,7.63
2022-10-30T13:32:13.375Z,9.00
2022-10-30T13:34:52.312Z,8.80
2022-10-30T13:37:50.545Z,8.73
2022-10-30T13:40:40.503Z,9.05
2022-10-30T13:43:19.399Z,7.32
2022-10-30T13:45:46.232Z,8.23
2022-10-30T13:48:30.707Z,8.02
2022-10-30T13:51:34.571Z,8.55
2022-10-30T13:54:13.996Z,8.38
2022-10-30T13:56:44.387Z,9.05
2022-10-30T13:59:54.910Z,8.52
2022-10-30T14:02:34.835Z,8.95
2022-10-30T14:05:12.632Z,8.50
2022-10-30T14:07:53.498Z,8.98
2022-10-30T14:10:32.384Z,8.20
2022-10-30T14:12:59.412Z,8.43
2022-10-30T14:15:32.536Z,8.07
2022-10-30T14:18:14.520Z,8.43
2022-10-30T14:21:21.607Z,7.97
2022-10-30T14:23:48.432Z,9.55
2022-10-30T14:26:20.851Z,8.82
2022-10-30T14:28:49.698Z,8.57
2022-10-30T14:33:55.451Z,9.55
2022-10-30T14:36:34.641Z,8.80
2022-10-30T14:39:10.691Z,8.75
2022-10-30T14:41:56.362Z,8.70
2022-10-30T14:44:54.163Z,9.18
2022-10-30T14:47:49.016Z,7.85
2022-10-30T14:50:27.766Z,8.75
2022-10-30T14:53:01.287Z,8.27
2022-10-30T14:55:36.041Z,8.18
2022-10-30T14:58:02.879Z,8.77
2022-10-30T15:00:35.722Z,8.25
2022-10-30T15:03:14.917Z,7.35
2022-10-30T15:06:06.751Z,9.20
2022-10-30T15:09:01.123Z,8.65
2022-10-30T15:11:40.437Z,8.82
2022-10-30T15:14:21.051Z,8.93
2022-10-30T15:16:51.486Z,8.80
2022-10-30T15:19:21.156Z,9.35
2022-10-30T15:21:52.295Z,8.32
2022-10-30T15:24:29.646Z,10.32
2022-10-30T15:29:31.938Z,10.00
2022-10-30T15:32:00.265Z,10.20
2022-10-30T15:34:29.119Z,10.55
2022-10-30T15:36:56.711Z,9.60
2022-10-30T15:39:23.989Z,10.50
2022-10-30T15:42:04.179Z,9.88
2022-10-30T15:44:33.547Z,10.98
2022-10-30T15:47:02.369Z,10.90
2022-10-30T15:49:38.931Z,10.25
2022-10-30T15:52:17.247Z,10.57
2022-10-30T15:54:46.837Z,10.88
2022-10-30T16:00:40.117Z,11.30
2022-10-30T16:03:17.263Z,11.23
2022-10-30T16:05:44.236Z,10.77
2022-10-30T16:08:23.996Z,9.30
2022-10-30T16:10:54.977Z,9.65
2022-10-30T16:13:31.785Z,11.18
2022-10-30T16:16:00.831Z,9.75
2022-10-30T16:18:31.734Z,9.43
2022-10-30T16:21:09.350Z,9.75
2022-10-30T16:23:42.194Z,9.50
2022-10-30T16:26:34.919Z,9.30
2022-10-30T16:29:07.945Z,8.85
2022-10-30T16:31:36.179Z,9.48
2022-10-30T16:34:05.122Z,11.47
2022-10-30T16:36:32.423Z,12.23
2022-10-30T16:38:59.442Z,9.85
2022-10-30T16:41:27.985Z,8.98
2022-10-30T16:44:08.183Z,10.23
2022-10-30T16:46:46.094Z,10.90
2022-10-30T16:49:19.018Z,10.90
2022-10-30T16:51:46.830Z,11.60
2022-10-30T16:54:24.151Z,13.75
2022-10-30T16:56:54.185Z,9.73
2022-10-30T16:59:29.321Z,10.75
2022-10-30T17:01:58.887Z,9.82
2022-10-30T17:04:28.417Z,13.77
2022-10-30T17:07:24.226Z,13.40
2022-10-30T17:09:53.268Z,9.73
2022-10-30T17:12:25.399Z,10.50
2022-10-30T17:15:12.726Z,9.50
2022-10-30T17:17:41.819Z,9.75
2022-10-30T17:20:22.745Z,13.40
2022-10-30T17:23:23.001Z,13.60
2022-10-30T17:25:49.960Z,10.48
2022-10-30T17:28:28.932Z,13.80
2022-10-30T17:30:56.323Z,15.27
2022-10-30T17:33:35.283Z,11.60
2022-10-30T17:36:04.167Z,16.58
2022-10-30T17:38:31.166Z,10.45
2022-10-30T17:40:58.351Z,10.88
2022-10-30T17:43:30.013Z,12.95
2022-10-30T17:45:57.624Z,17.00
2022-10-30T17:48:28.002Z,17.85
2022-10-30T17:50:55.106Z,16.77
2022-10-30T17:53:24.652Z,11.00
2022-10-30T17:56:16.757Z,14.48
2022-10-30T17:58:43.697Z,15.63
2022-10-30T18:01:25.438Z,15.80
2022-10-30T18:03:55.207Z,15.43
2022-10-30T18:06:25.763Z,16.17
2022-10-30T18:08:53.591Z,15.85
2022-10-30T18:11:23.511Z,16.40
2022-10-30T18:13:51.762Z,15.73
2022-10-30T18:16:19.879Z,16.30
2022-10-30T18:18:47.022Z,16.27
2022-10-30T18:21:15.321Z,12.48
2022-10-30T18:23:57.706Z,12.87
2022-10-30T18:26:26.236Z,12.60
2022-10-30T18:28:53.448Z,15.30
2022-10-30T18:31:22.844Z,16.02
2022-10-30T18:33:50.273Z,17.33
2022-10-30T18:36:22.903Z,17.38
2022-10-30T18:38:50.199Z,15.65
2022-10-30T18:41:23.033Z,16.17
2022-10-30T18:43:50.110Z,12.70
2022-10-30T18:46:17.199Z,12.05
2022-10-30T18:48:45.403Z,12.27
2022-10-30T18:51:30.838Z,16.08
2022-10-30T18:53:57.676Z,12.05
2022-10-30T18:56:29.976Z,14.52
2022-10-30T18:59:01.693Z,15.23
2022-10-30T19:01:32.209Z,12.60
2022-10-30T19:04:03.884Z,12.63
2022-10-30T19:06:31.123Z,13.07
2022-10-30T19:08:58.009Z,13.60
2022-10-30T19:11:26.248Z,14.18
2022-10-30T19:13:54.089Z,12.00
2022-10-30T19:16:21.818Z,12.05
2022-10-30T19:18:49.067Z,14.52
2022-10-30T19:21:21.572Z,12.20
2022-10-30T19:23:48.801Z,11.18
2022-10-30T19:26:17.431Z,15.52
2022-10-30T19:28:45.706Z,15.30
2022-10-30T19:31:14.982Z,16.55
2022-10-30T19:36:36.443Z,14.75
2022-10-30T19:39:10.085Z,15.50
2022-10-30T19:41:37.574Z,18.23
2022-10-30T19:44:04.867Z,16.90
2022-10-30T19:46:32.002Z,17.38
2022-10-30T19:49:00.110Z,18.92
2022-10-30T19:51:28.566Z,18.67
2022-10-30T19:53:55.810Z,18.40
2022-10-30T19:56:22.715Z,19.65
2022-10-30T19:58:50.173Z,19.38
2022-10-30T20:01:17.657Z,21.90
2022-10-30T20:03:44.709Z,20.10
2022-10-30T20:06:14.938Z,20.33
2022-10-30T20:08:41.968Z,21.42
2022-10-30T20:11:09.220Z,21.85
2022-10-30T20:13:37.306Z,22.70
2022-10-30T20:16:05.816Z,21.95
2022-10-30T20:18:35.823Z,24.03
2022-10-30T20:21:05.964Z,20.80
2022-10-30T20:23:32.835Z,23.10
2022-10-30T20:26:02.568Z,22.77
2022-10-30T20:28:36.318Z,24.45
2022-10-30T20:31:03.262Z,24.13
2022-10-30T20:33:30.262Z,22.20
2022-10-30T20:35:57.739Z,22.30
2022-10-30T20:38:27.115Z,19.33
2022-10-30T20:40:55.029Z,22.20
2022-10-30T20:43:28.660Z,24.30
2022-10-30T20:45:55.659Z,17.83
2022-10-30T20:48:22.545Z,19.42
2022-10-30T20:50:55.813Z,22.77
2022-10-30T20:53:23.069Z,23.95
2022-10-30T20:55:49.950Z,22.48
2022-10-30T20:58:17.247Z,21.90
2022-10-30T21:00:44.512Z,23.23
2022-10-30T21:03:14.427Z,23.55
2022-10-30T21:05:44.695Z,22.45
2022-10-30T21:08:15.461Z,23.08
2022-10-30T21:10:42.668Z,23.13
2022-10-30T21:13:11.211Z,24.42
2022-10-30T21:15:39.910Z,20.55
2022-10-30T21:18:07.018Z,19.80
2022-10-30T21:20:33.938Z,23.58
2022-10-30T21:23:00.778Z,25.25
2022-10-30T21:25:28.726Z,20.60
2022-10-30T21:27:59.098Z,24.67
2022-10-30T21:30:26.051Z,24.55
2022-10-30T21:32:53.033Z,24.33
2022-10-30T21:35:20.294Z,22.85
2022-10-30T21:37:47.198Z,24.63
2022-10-30T21:40:14.010Z,25.63
2022-10-30T21:42:40.884Z,23.73
2022-10-30T21:45:09.087Z,24.58
2022-10-30T21:47:35.928Z,24.92
2022-10-30T21:50:06.259Z,20.35
2022-10-30T21:52:36.195Z,24.20
2022-10-30T21:55:03.186Z,24.30
2022-10-30T21:57:30.042Z,24.45
2022-10-30T21:59:58.904Z,23.20
2022-10-30T22:02:28.696Z,24.30
2022-10-30T22:04:55.467Z,22.23
2022-10-30T22:07:22.388Z,22.70
2022-10-30T22:09:49.217Z,18.80
2022-10-30T22:12:16.021Z,23.90
2022-10-30T22:14:42.781Z,24.17
2022-10-30T22:17:09.587Z,19.95
2022-10-30T22:19:36.575Z,24.65
2022-10-30T22:22:03.411Z,25.42
2022-10-30T22:24:30.235Z,25.48
2022-10-30T22:26:57.013Z,24.95
2022-10-30T22:29:23.773Z,26.20
2022-10-30T22:31:50.704Z,24.40
2022-10-30T22:34:17.604Z,25.08
2022-10-30T22:36:44.461Z,23.55
2022-10-30T22:39:13.111Z,24.80
2022-10-30T22:41:40.473Z,23.55
2022-10-30T22:44:10.542Z,24.90
2022-10-30T22:46:37.832Z,22.70
2022-10-30T22:49:05.595Z,23.88
2022-10-30T22:51:34.538Z,23.55
2022-10-30T22:54:03.285Z,20.15
2022-10-30T22:56:32.713Z,22.88
2022-10-30T23:04:00.383Z,22.35
2022-10-30T23:06:29.410Z,22.10
2022-10-30T23:08:58.356Z,16.20
2022-10-30T23:11:26.066Z,15.75
2022-10-30T23:13:53.061Z,15.98
2022-10-30T23:16:23.498Z,20.38
2022-10-30T23:18:51.395Z,21.02
2022-10-30T23:21:21.174Z,16.02
2022-10-30T23:23:48.290Z,20.60
2022-10-30T23:26:16.534Z,23.08
2022-10-30T23:28:44.710Z,21.88
2022-10-30T23:31:16.609Z,18.58
2022-10-30T23:33:45.727Z,15.63
2022-10-30T23:36:12.510Z,22.40
2022-10-30T23:38:39.390Z,19.65
2022-10-30T23:41:06.162Z,22.60
2022-10-30T23:43:32.958Z,23.00
2022-10-30T23:45:59.737Z,22.48
2022-10-30T23:48:26.545Z,22.52
2022-10-30T23:50:53.375Z,22.85
2022-10-30T23:53:20.611Z,22.58
2022-10-30T23:55:52.627Z,23.85
2022-10-30T23:58:20.449Z,18.30
